Time;durP1;ratioP1;P1;durP2;ratioP2;P2;SDS_P1;SDS_P2;PMS_P1;PMS_P2;Temp;Humidity;BMP_temperature;BMP_pressure;BME280_temperature;BME280_humidity;BME280_pressure;Samples;Min_cycle;Max_cycle;Signal;HPM_P1;HPM_P2
2021/10/07 00:01:53;;;;;;;0.60;0.60;;;10.80;99.90;;;;;;5074127;28;20201;-74
2021/10/07 00:04:19;;;;;;;0.50;0.50;;;10.80;99.90;;;;;;5057975;28;20316;-75
2021/10/07 00:06:45;;;;;;;0.50;0.50;;;10.80;99.90;;;;;;5056988;28;20256;-74
2021/10/07 00:09:11;;;;;;;1.75;1.40;;;10.80;99.90;;;;;;5073021;28;20308;-74
2021/10/07 00:11:37;;;;;;;0.60;0.60;;;10.70;99.90;;;;;;5074300;28;20204;-74
2021/10/07 00:14:05;;;;;;;0.60;0.60;;;10.70;99.90;;;;;;5072818;28;20201;-74
2021/10/07 00:16:32;;;;;;;0.60;0.60;;;10.70;99.90;;;;;;5055999;28;20221;-73
2021/10/07 00:18:58;;;;;;;0.60;0.60;;;10.70;99.90;;;;;;5056027;28;20679;-74
2021/10/07 00:21:24;;;;;;;0.85;0.85;;;10.70;99.90;;;;;;5074071;28;20201;-74
2021/10/07 00:24:07;;;;;;;0.60;0.60;;;10.70;99.90;;;;;;5074258;28;20279;-74
2021/10/07 00:26:59;;;;;;;0.70;0.70;;;10.60;99.90;;;;;;5071915;28;20283;-74
2021/10/07 00:32:07;;;;;;;0.50;0.50;;;10.50;99.90;;;;;;5057771;28;20232;-74
2021/10/07 00:39:49;;;;;;;0.57;0.57;;;10.20;99.90;;;;;;5073665;28;20250;-74
2021/10/07 00:42:16;;;;;;;0.43;0.43;;;10.20;99.90;;;;;;5073572;28;20207;-74
2021/10/07 00:44:44;;;;;;;0.45;0.45;;;10.20;99.90;;;;;;5073586;28;20271;-74
2021/10/07 00:47:11;;;;;;;0.50;0.50;;;10.10;99.90;;;;;;5072792;28;20663;-74
2021/10/07 00:49:40;;;;;;;0.70;0.70;;;10.00;99.90;;;;;;5055506;28;20205;-74
2021/10/07 00:52:10;;;;;;;0.55;0.55;;;10.00;99.90;;;;;;5072758;28;20193;-75
2021/10/07 00:54:37;;;;;;;0.50;0.50;;;9.90;99.90;;;;;;5073382;28;20213;-74
2021/10/07 00:57:06;;;;;;;0.60;0.60;;;9.90;99.90;;;;;;5073112;28;20224;-75
2021/10/07 00:59:36;;;;;;;0.60;0.60;;;9.80;99.90;;;;;;5055911;28;20201;-74
2021/10/07 01:02:08;;;;;;;0.50;0.50;;;9.70;99.90;;;;;;5070839;28;20251;-75
2021/10/07 01:04:35;;;;;;;0.55;0.55;;;9.60;99.90;;;;;;5052054;28;20676;-74
2021/10/07 01:07:05;;;;;;;0.50;0.50;;;9.60;99.90;;;;;;5052195;28;20202;-74
2021/10/07 01:09:31;;;;;;;0.50;0.50;;;9.50;99.90;;;;;;5035042;28;20572;-74
2021/10/07 01:11:58;;;;;;;0.50;0.50;;;9.40;99.90;;;;;;5035059;28;20201;-74
2021/10/07 01:14:46;;;;;;;0.50;0.50;;;9.40;99.90;;;;;;5036053;28;20205;-74
2021/10/07 01:17:15;;;;;;;0.95;0.90;;;9.40;99.90;;;;;;5048110;28;20218;-74
2021/10/07 01:19:42;;;;;;;0.50;0.50;;;9.40;99.90;;;;;;5051510;28;20240;-74
2021/10/07 01:22:08;;;;;;;0.40;0.40;;;9.30;99.90;;;;;;5051859;28;20205;-73
2021/10/07 01:24:34;;;;;;;0.63;0.63;;;9.30;99.90;;;;;;5034917;28;20197;-74
2021/10/07 01:27:00;;;;;;;0.50;0.50;;;9.30;99.90;;;;;;5051682;28;20200;-73
2021/10/07 01:29:26;;;;;;;0.50;0.50;;;9.30;99.90;;;;;;5051063;28;20220;-73
2021/10/07 01:31:52;;;;;;;0.60;0.60;;;9.30;99.90;;;;;;5051576;28;20209;-73
2021/10/07 01:34:31;;;;;;;0.50;0.50;;;9.30;99.90;;;;;;5034722;28;20621;-73
2021/10/07 01:36:57;;;;;;;0.50;0.50;;;9.30;99.90;;;;;;5051600;28;20284;-73
2021/10/07 01:39:23;;;;;;;0.73;0.73;;;9.20;99.90;;;;;;5034678;28;20228;-73
2021/10/07 01:41:49;;;;;;;0.47;0.47;;;9.20;99.90;;;;;;5040000;28;20660;-74
2021/10/07 01:44:18;;;;;;;0.50;0.50;;;9.10;99.90;;;;;;5046574;28;20198;-74
2021/10/07 01:46:44;;;;;;;1.08;0.85;;;9.00;99.90;;;;;;5046363;28;20201;-73
2021/10/07 01:49:10;;;;;;;0.50;0.50;;;8.90;99.90;;;;;;5051315;28;20684;-74
2021/10/07 01:51:36;;;;;;;0.60;0.60;;;8.80;99.90;;;;;;5051187;28;20205;-73
2021/10/07 01:54:04;;;;;;;0.88;0.77;;;8.70;99.90;;;;;;5047207;28;20209;-73
2021/10/07 01:56:29;;;;;;;0.50;0.50;;;8.60;99.90;;;;;;5037750;28;20215;-73
2021/10/07 01:58:56;;;;;;;2.28;1.35;;;8.50;99.90;;;;;;5049965;28;20194;-73
2021/10/07 02:01:21;;;;;;;0.57;0.57;;;8.40;99.90;;;;;;5051781;28;20203;-73
2021/10/07 02:03:47;;;;;;;0.68;0.68;;;8.40;99.90;;;;;;5048084;28;20223;-75
2021/10/07 02:06:13;;;;;;;0.45;0.45;;;8.30;99.90;;;;;;5053422;28;20206;-73
2021/10/07 02:08:39;;;;;;;0.60;0.60;;;8.30;99.90;;;;;;5071464;28;20382;-73
2021/10/07 02:11:05;;;;;;;0.60;0.60;;;8.30;99.90;;;;;;5072081;28;20215;-73
2021/10/07 02:13:31;;;;;;;0.60;0.60;;;8.20;99.90;;;;;;5071050;28;20660;-73
2021/10/07 02:15:58;;;;;;;0.60;0.60;;;8.10;99.90;;;;;;5070440;28;20236;-73
2021/10/07 02:18:24;;;;;;;0.60;0.60;;;8.00;99.90;;;;;;5053236;28;20295;-73
2021/10/07 02:20:50;;;;;;;0.80;0.80;;;8.00;99.90;;;;;;5070536;28;20201;-73
2021/10/07 02:23:16;;;;;;;1.08;0.98;;;7.90;99.90;;;;;;5054009;28;20212;-73
2021/10/07 02:25:41;;;;;;;0.50;0.50;;;7.90;99.90;;;;;;5071308;28;20210;-74
2021/10/07 02:28:07;;;;;;;1.65;1.10;;;7.90;99.90;;;;;;5053649;28;20220;-74
2021/10/07 02:30:33;;;;;;;5.57;1.35;;;7.90;99.90;;;;;;5070196;28;20229;-74
2021/10/07 02:32:59;;;;;;;0.50;0.50;;;7.90;99.90;;;;;;5071858;28;20247;-73
2021/10/07 02:35:24;;;;;;;1.48;1.38;;;7.80;99.90;;;;;;5071547;28;20209;-75
2021/10/07 02:37:50;;;;;;;0.60;0.60;;;7.80;99.90;;;;;;5071599;28;20632;-74
2021/10/07 02:40:17;;;;;;;0.50;0.50;;;7.70;99.90;;;;;;5069038;28;20246;-73
2021/10/07 02:42:44;;;;;;;0.60;0.60;;;7.70;99.90;;;;;;5070182;28;20192;-73
2021/10/07 02:45:13;;;;;;;0.65;0.65;;;7.70;99.90;;;;;;5071515;28;20223;-73
2021/10/07 02:47:39;;;;;;;0.52;0.52;;;7.70;99.90;;;;;;5053241;28;20201;-73
2021/10/07 02:50:07;;;;;;;0.68;0.68;;;7.70;99.90;;;;;;5070278;28;20695;-74
2021/10/07 02:52:33;;;;;;;0.70;0.70;;;7.70;99.90;;;;;;5070148;28;20713;-74
2021/10/07 02:54:58;;;;;;;0.50;0.50;;;7.80;99.90;;;;;;5071605;28;20204;-73
2021/10/07 02:57:24;;;;;;;0.50;0.50;;;7.80;99.90;;;;;;5071369;28;20625;-74
2021/10/07 02:59:50;;;;;;;0.50;0.50;;;7.80;99.90;;;;;;5071428;28;20566;-74
2021/10/07 03:02:15;;;;;;;0.60;0.60;;;7.90;99.90;;;;;;5070484;28;20220;-73
2021/10/07 03:04:45;;;;;;;0.70;0.70;;;7.90;99.90;;;;;;5070825;28;20212;-73
2021/10/07 03:07:11;;;;;;;0.60;0.60;;;7.90;99.90;;;;;;5070081;28;20205;-73
2021/10/07 03:09:38;;;;;;;0.60;0.60;;;8.00;99.90;;;;;;5069865;28;20216;-73
2021/10/07 03:12:05;;;;;;;0.60;0.60;;;8.00;99.90;;;;;;5041148;28;20699;-73
2021/10/07 03:14:31;;;;;;;0.70;0.70;;;8.00;99.90;;;;;;5069017;28;20690;-73
2021/10/07 03:16:57;;;;;;;0.55;0.55;;;8.10;99.90;;;;;;5073670;28;20212;-73
2021/10/07 03:19:23;;;;;;;0.60;0.60;;;8.10;99.90;;;;;;5072270;28;20200;-74
2021/10/07 03:21:48;;;;;;;0.60;0.60;;;8.10;99.90;;;;;;5075043;28;20545;-73
2021/10/07 03:24:14;;;;;;;0.60;0.60;;;8.20;99.90;;;;;;5072310;28;20227;-73
2021/10/07 03:26:40;;;;;;;0.50;0.50;;;8.10;99.90;;;;;;5052443;28;20672;-73
2021/10/07 03:29:06;;;;;;;0.50;0.50;;;8.10;99.90;;;;;;5063331;28;20680;-73
2021/10/07 03:31:32;;;;;;;0.70;0.70;;;8.10;99.90;;;;;;5074704;28;20204;-73
2021/10/07 03:33:57;;;;;;;0.57;0.57;;;8.00;99.90;;;;;;5058397;28;20193;-74
2021/10/07 03:36:23;;;;;;;0.70;0.70;;;7.90;99.90;;;;;;5074414;28;20212;-74
2021/10/07 03:38:49;;;;;;;0.47;0.47;;;7.80;99.90;;;;;;5073158;28;20280;-74
2021/10/07 03:41:14;;;;;;;0.60;0.60;;;7.70;99.90;;;;;;5074678;28;20284;-74
2021/10/07 03:43:40;;;;;;;0.50;0.50;;;7.60;99.90;;;;;;5055227;28;20197;-74
2021/10/07 03:46:06;;;;;;;0.80;0.80;;;7.50;99.90;;;;;;5056327;28;20204;-74
2021/10/07 03:48:31;;;;;;;0.50;0.50;;;7.50;99.90;;;;;;5073816;28;20296;-74
2021/10/07 03:50:57;;;;;;;0.60;0.60;;;7.50;99.90;;;;;;5073229;28;20210;-74
2021/10/07 03:53:25;;;;;;;0.52;0.52;;;7.50;99.90;;;;;;5071536;28;20228;-74
2021/10/07 03:55:51;;;;;;;0.60;0.60;;;7.40;99.90;;;;;;5052927;28;20210;-73
2021/10/07 03:58:16;;;;;;;0.50;0.50;;;7.40;99.90;;;;;;5070722;28;20685;-74
2021/10/07 04:00:42;;;;;;;1.23;1.15;;;7.30;99.90;;;;;;5072692;28;20743;-74
2021/10/07 04:03:11;;;;;;;0.60;0.60;;;7.30;99.90;;;;;;5051265;28;20229;-73
2021/10/07 04:05:36;;;;;;;0.55;0.55;;;7.30;99.90;;;;;;5067152;28;20262;-72
2021/10/07 04:08:04;;;;;;;0.70;0.70;;;7.30;99.90;;;;;;5074369;28;20204;-72
2021/10/07 04:10:31;;;;;;;0.60;0.60;;;7.20;99.90;;;;;;5072550;28;20197;-72
2021/10/07 04:12:56;;;;;;;0.65;0.65;;;7.20;99.90;;;;;;5057429;28;20197;-72
2021/10/07 04:15:22;;;;;;;0.52;0.52;;;7.10;99.90;;;;;;5072512;28;20275;-73
2021/10/07 04:17:48;;;;;;;0.52;0.52;;;7.10;99.90;;;;;;5055778;28;20204;-73
2021/10/07 04:20:14;;;;;;;0.68;0.68;;;7.00;99.90;;;;;;5073334;28;20250;-72
2021/10/07 04:22:40;;;;;;;0.50;0.50;;;7.00;99.90;;;;;;5073101;28;20786;-72
2021/10/07 04:25:09;;;;;;;0.60;0.60;;;7.00;99.90;;;;;;5054561;28;20204;-72
2021/10/07 04:27:35;;;;;;;0.60;0.60;;;7.00;99.90;;;;;;5072358;28;20199;-72
2021/10/07 04:30:05;;;;;;;0.70;0.70;;;7.10;99.90;;;;;;5072425;28;20201;-72
2021/10/07 04:32:31;;;;;;;0.70;0.70;;;7.10;99.90;;;;;;5054358;28;20201;-74
2021/10/07 04:34:56;;;;;;;0.70;0.70;;;7.20;99.90;;;;;;5072521;28;20547;-72
2021/10/07 04:37:22;;;;;;;0.70;0.70;;;7.20;99.90;;;;;;5073725;28;20216;-74
2021/10/07 04:39:49;;;;;;;0.60;0.60;;;7.30;99.90;;;;;;5072706;28;20197;-74
2021/10/07 04:42:17;;;;;;;0.88;0.88;;;7.40;99.90;;;;;;5073523;28;20300;-75
2021/10/07 04:44:43;;;;;;;0.50;0.50;;;7.40;99.90;;;;;;5055764;28;20211;-73
2021/10/07 04:47:11;;;;;;;0.60;0.60;;;7.50;99.90;;;;;;5073453;28;20635;-74
2021/10/07 04:49:37;;;;;;;0.60;0.60;;;7.50;99.90;;;;;;5073159;28;20204;-74
2021/10/07 04:52:03;;;;;;;0.60;0.60;;;7.50;99.90;;;;;;5073499;28;20287;-74
2021/10/07 04:54:29;;;;;;;0.60;0.60;;;7.50;99.90;;;;;;5072916;28;20571;-73
2021/10/07 04:56:55;;;;;;;0.65;0.65;;;7.60;99.90;;;;;;5055136;28;20204;-73
2021/10/07 04:59:21;;;;;;;0.70;0.70;;;7.60;99.90;;;;;;5042347;28;20208;-74
2021/10/07 05:01:47;;;;;;;0.80;0.80;;;7.70;99.90;;;;;;5067342;28;20663;-73
2021/10/07 05:04:13;;;;;;;0.60;0.60;;;7.80;99.90;;;;;;5042324;28;20376;-73
2021/10/07 05:06:38;;;;;;;1.02;0.95;;;7.90;99.90;;;;;;5045350;28;21388;-73
2021/10/07 05:09:04;;;;;;;0.60;0.60;;;8.00;99.90;;;;;;5053235;28;20210;-73
2021/10/07 05:11:30;;;;;;;0.60;0.60;;;8.00;99.90;;;;;;5051960;28;20694;-73
2021/10/07 05:13:55;;;;;;;0.70;0.70;;;8.10;99.90;;;;;;5050377;28;20223;-73
2021/10/07 05:16:21;;;;;;;0.60;0.60;;;8.20;99.90;;;;;;5052995;28;20216;-73
2021/10/07 05:18:46;;;;;;;0.60;0.60;;;8.20;99.90;;;;;;5050169;28;20201;-73
2021/10/07 05:21:12;;;;;;;0.80;0.80;;;8.30;99.90;;;;;;5052870;28;20660;-73
2021/10/07 05:23:38;;;;;;;0.57;0.57;;;8.30;99.90;;;;;;5052682;28;20568;-73
2021/10/07 05:26:04;;;;;;;0.82;0.82;;;8.40;99.90;;;;;;5051568;28;20206;-73
2021/10/07 05:28:29;;;;;;;0.60;0.60;;;8.40;99.90;;;;;;5050115;28;20197;-73
2021/10/07 05:30:55;;;;;;;0.60;0.60;;;8.50;99.90;;;;;;5052602;28;20201;-73
2021/10/07 05:33:22;;;;;;;0.70;0.70;;;8.60;99.90;;;;;;5050941;28;20267;-73
2021/10/07 05:35:49;;;;;;;0.60;0.60;;;8.60;99.90;;;;;;5034029;28;20672;-73
2021/10/07 05:38:16;;;;;;;0.50;0.50;;;8.60;99.90;;;;;;5049907;28;20205;-72
2021/10/07 05:40:41;;;;;;;0.50;0.50;;;8.70;99.90;;;;;;5049577;28;20210;-72
2021/10/07 05:43:11;;;;;;;0.60;0.60;;;8.70;99.90;;;;;;5052415;28;20205;-73
2021/10/07 05:45:37;;;;;;;0.60;0.60;;;8.80;99.90;;;;;;5052105;28;20206;-73
2021/10/07 05:48:04;;;;;;;0.60;0.60;;;8.80;99.90;;;;;;5050915;28;20197;-72
2021/10/07 05:50:30;;;;;;;0.57;0.57;;;8.90;99.90;;;;;;5050620;28;20205;-72
2021/10/07 05:52:56;;;;;;;0.60;0.60;;;9.00;99.90;;;;;;5052301;28;20273;-72
2021/10/07 05:55:21;;;;;;;0.57;0.57;;;9.00;99.90;;;;;;5052105;28;20235;-72
2021/10/07 05:57:47;;;;;;;0.60;0.60;;;9.00;99.90;;;;;;5049383;28;20224;-72
2021/10/07 06:00:13;;;;;;;0.40;0.40;;;9.10;99.90;;;;;;5052228;28;20206;-72
2021/10/07 06:02:40;;;;;;;0.73;0.73;;;9.10;99.90;;;;;;5051458;28;20308;-73
2021/10/07 06:05:08;;;;;;;0.68;0.68;;;9.10;99.90;;;;;;5047114;28;20707;-73
2021/10/07 06:07:34;;;;;;;0.70;0.70;;;9.20;99.90;;;;;;5050937;28;20208;-73
2021/10/07 06:10:00;;;;;;;0.20;0.20;;;9.20;99.90;;;;;;5063321;28;20205;-72
2021/10/07 06:12:26;;;;;;;2.70;0.80;;;9.30;99.90;;;;;;5052629;28;21321;-72
2021/10/07 06:14:52;;;;;;;0.28;0.28;;;9.30;99.90;;;;;;5032789;28;20213;-72
2021/10/07 06:17:18;;;;;;;0.20;0.20;;;9.40;99.90;;;;;;5033741;28;20209;-73
2021/10/07 06:19:47;;;;;;;0.30;0.30;;;9.40;99.90;;;;;;5032465;28;20205;-72
2021/10/07 06:22:13;;;;;;;0.20;0.20;;;9.50;99.90;;;;;;5033749;28;20251;-73
2021/10/07 06:24:39;;;;;;;0.20;0.20;;;9.60;99.90;;;;;;5035588;28;20616;-72
2021/10/07 06:27:05;;;;;;;0.20;0.20;;;9.60;99.90;;;;;;5051133;28;20289;-72
2021/10/07 06:29:31;;;;;;;0.20;0.20;;;9.70;99.90;;;;;;5033135;28;20209;-73
2021/10/07 06:31:57;;;;;;;0.20;0.20;;;9.70;99.90;;;;;;5033912;28;20258;-73
2021/10/07 06:34:23;;;;;;;0.45;0.25;;;9.70;99.90;;;;;;5050732;28;20202;-72
2021/10/07 06:36:48;;;;;;;1.08;0.63;;;9.80;99.90;;;;;;5045189;28;20220;-73
2021/10/07 06:39:14;;;;;;;0.98;0.57;;;9.80;99.90;;;;;;5050525;28;20212;-72
2021/10/07 06:41:40;;;;;;;0.50;0.50;;;9.90;99.90;;;;;;5033559;28;20209;-72
2021/10/07 06:44:06;;;;;;;2.47;0.63;;;9.90;99.90;;;;;;5051166;28;20260;-72
2021/10/07 06:46:31;;;;;;;1.35;1.15;;;10.00;99.90;;;;;;5054510;28;20267;-72
2021/10/07 06:48:58;;;;;;;0.47;0.47;;;10.10;99.90;;;;;;5054545;28;20208;-73
2021/10/07 06:51:25;;;;;;;0.82;0.43;;;10.20;99.90;;;;;;5036440;28;20209;-73
2021/10/07 06:53:56;;;;;;;0.68;0.68;;;10.20;99.90;;;;;;5054549;28;20206;-73
2021/10/07 06:56:23;;;;;;;0.40;0.40;;;10.30;99.90;;;;;;5054141;28;20346;-73
2021/10/07 06:58:52;;;;;;;0.90;0.43;;;10.40;99.90;;;;;;5037540;28;20197;-74
2021/10/07 07:01:23;;;;;;;0.45;0.45;;;10.40;99.90;;;;;;5049188;28;20213;-74
2021/10/07 07:03:52;;;;;;;0.47;0.47;;;10.40;99.90;;;;;;5067408;28;20228;-73
2021/10/07 07:06:19;;;;;;;0.40;0.40;;;10.50;99.90;;;;;;5055991;28;20205;-73
2021/10/07 07:08:44;;;;;;;1.33;0.63;;;10.50;99.90;;;;;;5075309;28;20563;-73
2021/10/07 07:11:10;;;;;;;0.35;0.35;;;10.50;99.90;;;;;;5073881;28;20216;-74
2021/10/07 07:13:36;;;;;;;0.30;0.30;;;10.50;99.90;;;;;;5073652;28;20214;-73
2021/10/07 07:16:02;;;;;;;0.20;0.20;;;10.60;99.90;;;;;;5073567;28;20639;-73
2021/10/07 07:18:27;;;;;;;0.20;0.20;;;10.60;99.90;;;;;;5074730;28;20267;-74
2021/10/07 07:20:53;;;;;;;0.38;0.30;;;10.60;99.90;;;;;;5055844;28;20529;-73
2021/10/07 07:23:19;;;;;;;0.60;0.60;;;10.70;99.90;;;;;;5075074;28;20204;-72
2021/10/07 07:25:45;;;;;;;0.47;0.47;;;10.70;99.90;;;;;;5075313;28;20201;-73
2021/10/07 07:28:11;;;;;;;0.40;0.40;;;10.70;99.90;;;;;;5075114;28;20280;-73
2021/10/07 07:30:37;;;;;;;0.30;0.30;;;10.80;99.90;;;;;;5073803;28;20227;-73
2021/10/07 07:33:03;;;;;;;0.32;0.32;;;10.90;99.90;;;;;;5073916;28;20656;-72
2021/10/07 07:35:31;;;;;;;0.75;0.75;;;11.00;99.90;;;;;;5074766;28;20208;-73
2021/10/07 07:38:03;;;;;;;0.30;0.30;;;11.00;99.90;;;;;;5073798;28;20209;-72
2021/10/07 07:40:30;;;;;;;0.20;0.20;;;11.10;99.90;;;;;;5055375;28;20300;-73
2021/10/07 07:42:57;;;;;;;0.20;0.20;;;11.20;99.90;;;;;;5044533;28;20678;-73
2021/10/07 07:45:24;;;;;;;0.90;0.60;;;11.30;99.90;;;;;;5068218;28;20201;-72
2021/10/07 07:47:50;;;;;;;0.20;0.20;;;11.30;99.90;;;;;;5055340;28;20200;-73
2021/10/07 07:50:18;;;;;;;0.30;0.30;;;11.40;99.90;;;;;;5073467;28;20212;-75
2021/10/07 07:52:45;;;;;;;0.50;0.50;;;11.50;99.90;;;;;;5057811;28;20212;-74
2021/10/07 07:55:11;;;;;;;0.30;0.30;;;11.50;99.90;;;;;;5056206;28;20429;-74
2021/10/07 07:57:37;;;;;;;0.50;0.50;;;11.50;99.90;;;;;;5050371;28;20581;-74
2021/10/07 08:00:04;;;;;;;0.20;0.20;;;11.60;99.90;;;;;;5061259;28;20226;-74
2021/10/07 08:02:30;;;;;;;0.20;0.20;;;11.60;99.90;;;;;;5073660;28;20200;-73
2021/10/07 08:04:56;;;;;;;0.20;0.20;;;11.70;99.90;;;;;;5072940;28;20209;-74
2021/10/07 08:07:21;;;;;;;0.30;0.30;;;11.70;99.90;;;;;;5074162;28;20204;-73
2021/10/07 08:09:48;;;;;;;0.28;0.28;;;11.80;99.90;;;;;;5055037;28;20202;-73
2021/10/07 08:12:15;;;;;;;0.28;0.28;;;11.80;99.90;;;;;;5072879;28;20204;-74
2021/10/07 08:14:46;;;;;;;0.20;0.20;;;11.90;99.90;;;;;;5072892;28;20211;-74
2021/10/07 08:17:12;;;;;;;0.40;0.40;;;11.90;99.90;;;;;;5073185;28;20215;-74
2021/10/07 08:19:38;;;;;;;0.40;0.40;;;11.90;99.90;;;;;;5055909;28;20201;-74
2021/10/07 08:22:05;;;;;;;0.22;0.22;;;11.90;99.90;;;;;;5074088;28;20276;-74
2021/10/07 08:24:32;;;;;;;0.38;0.38;;;11.90;99.90;;;;;;5072451;28;20196;-74
2021/10/07 08:27:02;;;;;;;0.75;0.75;;;11.90;99.90;;;;;;5072448;28;20228;-73
2021/10/07 08:29:27;;;;;;;2.72;0.77;;;11.80;99.90;;;;;;5054310;28;20213;-74
2021/10/07 08:31:53;;;;;;;0.25;0.25;;;11.90;99.90;;;;;;5073697;28;20209;-74
2021/10/07 08:34:19;;;;;;;0.38;0.38;;;11.80;99.90;;;;;;5072379;28;20200;-75
2021/10/07 08:36:46;;;;;;;0.52;0.40;;;11.90;99.90;;;;;;5072235;28;20253;-74
2021/10/07 08:39:16;;;;;;;0.20;0.20;;;11.90;99.90;;;;;;5055501;28;20208;-75
2021/10/07 08:41:47;;;;;;;0.20;0.20;;;12.00;99.90;;;;;;5071898;28;20557;-75
2021/10/07 08:44:18;;;;;;;0.30;0.30;;;12.10;99.90;;;;;;5056763;28;20200;-75
2021/10/07 08:46:48;;;;;;;0.20;0.20;;;12.30;99.90;;;;;;5055597;28;20209;-74
2021/10/07 08:49:17;;;;;;;0.10;0.10;;;12.30;99.90;;;;;;5073625;28;20211;-74
2021/10/07 08:51:44;;;;;;;0.10;0.10;;;12.30;99.90;;;;;;5054173;28;20232;-73
2021/10/07 08:54:11;;;;;;;0.50;0.50;;;12.30;99.90;;;;;;5073135;28;20231;-74
2021/10/07 08:56:37;;;;;;;0.20;0.20;;;12.30;99.90;;;;;;5071855;28;20209;-73
2021/10/07 08:59:04;;;;;;;0.20;0.20;;;12.40;99.90;;;;;;5072278;28;20204;-74
2021/10/07 09:01:44;;;;;;;0.50;0.50;;;12.40;99.90;;;;;;5055453;28;20211;-73
2021/10/07 09:04:19;;;;;;;0.47;0.47;;;12.50;99.90;;;;;;5059031;28;20224;-74
2021/10/07 09:06:47;;;;;;;0.20;0.20;;;12.60;99.90;;;;;;5051443;28;20621;-73
2021/10/07 09:09:13;;;;;;;0.20;0.20;;;12.70;99.90;;;;;;5050462;28;20209;-74
2021/10/07 09:11:39;;;;;;;0.20;0.20;;;12.80;99.90;;;;;;5051761;28;21356;-73
2021/10/07 09:14:10;;;;;;;0.20;0.20;;;12.90;99.90;;;;;;5050375;28;20288;-74
2021/10/07 09:16:43;;;;;;;0.90;0.80;;;13.10;99.90;;;;;;5051496;28;20259;-74
2021/10/07 09:19:13;;;;;;;0.30;0.30;;;13.20;99.90;;;;;;5051327;28;20552;-74
2021/10/07 09:21:38;;;;;;;0.10;0.10;;;13.30;99.90;;;;;;5051307;28;20564;-73
2021/10/07 09:24:24;;;;;;;0.15;0.15;;;13.30;99.90;;;;;;5050081;28;20205;-73
2021/10/07 09:26:50;;;;;;;0.20;0.20;;;13.30;99.90;;;;;;5051063;28;20667;-74
2021/10/07 09:29:15;;;;;;;0.20;0.20;;;13.30;99.90;;;;;;5051255;28;20205;-74
2021/10/07 09:31:43;;;;;;;0.28;0.28;;;13.30;99.90;;;;;;5052180;28;20205;-74
2021/10/07 09:34:08;;;;;;;0.28;0.28;;;13.30;99.90;;;;;;5051520;28;20248;-74
2021/10/07 09:36:34;;;;;;;0.20;0.20;;;13.40;99.90;;;;;;5052800;28;20240;-73
2021/10/07 09:39:03;;;;;;;0.52;0.40;;;13.50;99.90;;;;;;5051286;28;20208;-74
2021/10/07 09:41:31;;;;;;;0.13;0.13;;;13.60;99.90;;;;;;5052272;28;20193;-76
2021/10/07 09:44:04;;;;;;;0.20;0.20;;;13.80;99.90;;;;;;5051886;28;20209;-75
2021/10/07 09:46:51;;;;;;;0.60;0.60;;;13.80;99.90;;;;;;5052425;28;20201;-74
2021/10/07 09:49:35;;;;;;;0.25;0.25;;;13.90;99.90;;;;;;5049977;28;20205;-75
2021/10/07 09:52:02;;;;;;;0.20;0.20;;;14.00;99.90;;;;;;5067656;28;20201;-75
2021/10/07 09:54:35;;;;;;;0.20;0.20;;;14.00;99.90;;;;;;5051408;28;20273;-75
2021/10/07 09:57:03;;;;;;;1.08;0.55;;;13.90;99.90;;;;;;5052119;28;20221;-74
2021/10/07 09:59:31;;;;;;;0.20;0.20;;;13.80;99.90;;;;;;5051152;28;20255;-76
2021/10/07 10:01:57;;;;;;;0.38;0.38;;;13.60;99.90;;;;;;5050128;28;20197;-75
2021/10/07 10:04:25;;;;;;;0.40;0.40;;;13.60;99.90;;;;;;5036257;28;20706;-75
2021/10/07 10:06:51;;;;;;;0.22;0.22;;;13.60;99.90;;;;;;5055761;28;20212;-75
2021/10/07 10:09:26;;;;;;;0.10;0.10;;;13.60;99.90;;;;;;5071299;28;20232;-74
2021/10/07 10:11:52;;;;;;;0.13;0.13;;;13.60;99.90;;;;;;5035626;28;20240;-74
2021/10/07 10:14:22;;;;;;;0.20;0.20;;;13.60;99.90;;;;;;5052388;28;20212;-74
2021/10/07 10:16:47;;;;;;;0.20;0.20;;;13.50;99.90;;;;;;5053737;28;20215;-74
2021/10/07 10:19:14;;;;;;;6.82;0.70;;;13.60;99.90;;;;;;5072490;28;20593;-74
2021/10/07 10:21:40;;;;;;;0.30;0.30;;;13.50;99.90;;;;;;5054063;28;20208;-74
2021/10/07 10:24:09;;;;;;;0.20;0.20;;;13.50;99.90;;;;;;5053971;28;20713;-74
2021/10/07 10:26:39;;;;;;;0.20;0.20;;;13.60;99.90;;;;;;5053784;28;20208;-74
2021/10/07 10:29:25;;;;;;;0.20;0.20;;;13.70;99.90;;;;;;5053806;28;20605;-74
2021/10/07 10:31:52;;;;;;;5.25;1.50;;;13.80;99.90;;;;;;5069776;28;20578;-74
2021/10/07 10:34:19;;;;;;;0.20;0.20;;;13.80;99.90;;;;;;5053712;28;20209;-74
2021/10/07 10:36:49;;;;;;;0.28;0.28;;;13.80;99.90;;;;;;5052230;28;20215;-75
2021/10/07 10:39:37;;;;;;;0.30;0.30;;;13.90;99.90;;;;;;5071813;28;20647;-74
2021/10/07 10:42:03;;;;;;;0.20;0.20;;;14.00;99.90;;;;;;5053586;28;20228;-72
2021/10/07 10:44:32;;;;;;;0.13;0.13;;;14.10;99.90;;;;;;5071547;28;20254;-75
2021/10/07 10:47:07;;;;;;;0.20;0.20;;;14.10;99.90;;;;;;5052166;28;20626;-75
2021/10/07 10:49:51;;;;;;;0.13;0.13;;;14.20;99.90;;;;;;5054815;28;20278;-74
2021/10/07 10:52:41;;;;;;;0.20;0.20;;;14.20;99.90;;;;;;5070237;28;20275;-75
2021/10/07 10:55:19;;;;;;;0.20;0.20;;;14.10;99.90;;;;;;5070403;28;20207;-75
2021/10/07 10:57:51;;;;;;;0.45;0.45;;;14.20;99.90;;;;;;5068067;28;20691;-75
2021/10/07 11:00:28;;;;;;;0.20;0.20;;;14.20;99.90;;;;;;5046609;28;20207;-76
2021/10/07 11:03:14;;;;;;;0.25;0.25;;;14.30;99.90;;;;;;5067993;28;20239;-75
2021/10/07 11:06:06;;;;;;;0.20;0.20;;;14.50;99.90;;;;;;5067850;28;20201;-75
2021/10/07 11:08:47;;;;;;;0.45;0.22;;;14.50;99.90;;;;;;5048391;28;20205;-76
2021/10/07 11:11:28;;;;;;;0.10;0.10;;;14.50;99.90;;;;;;5047904;28;20603;-76
2021/10/07 11:13:55;;;;;;;0.13;0.13;;;14.50;99.90;;;;;;5054806;28;20224;-75
2021/10/07 11:16:21;;;;;;;0.10;0.10;;;14.40;99.90;;;;;;5069860;28;20566;-76
2021/10/07 11:18:49;;;;;;;0.57;0.57;;;14.30;99.90;;;;;;5069964;28;20200;-74
2021/10/07 11:21:17;;;;;;;0.20;0.20;;;14.30;99.90;;;;;;5070194;28;20246;-75
2021/10/07 11:23:54;;;;;;;0.20;0.20;;;14.40;99.90;;;;;;5071245;28;20594;-74
2021/10/07 11:26:23;;;;;;;0.15;0.15;;;14.50;99.90;;;;;;5053306;28;20690;-76
2021/10/07 11:28:50;;;;;;;0.60;0.55;;;14.50;99.90;;;;;;5071551;28;20205;-75
2021/10/07 11:31:24;;;;;;;0.15;0.15;;;14.50;99.90;;;;;;5055629;28;20295;-75
2021/10/07 11:33:57;;;;;;;0.20;0.20;;;14.50;99.90;;;;;;5074650;28;20205;-74
2021/10/07 11:36:27;;;;;;;0.25;0.25;;;14.50;99.90;;;;;;5073431;28;20223;-75
2021/10/07 11:38:54;;;;;;;0.40;0.40;;;14.60;99.90;;;;;;5073490;28;20306;-75
2021/10/07 11:41:24;;;;;;;0.30;0.30;;;14.60;99.90;;;;;;5068742;28;20550;-75
2021/10/07 11:43:51;;;;;;;0.32;0.28;;;14.70;99.90;;;;;;5066395;28;20220;-74
2021/10/07 11:46:19;;;;;;;0.10;0.10;;;14.90;99.90;;;;;;5054827;28;20208;-75
2021/10/07 11:48:44;;;;;;;0.20;0.20;;;14.90;99.90;;;;;;5074598;28;20205;-75
2021/10/07 11:51:10;;;;;;;0.20;0.20;;;14.90;99.90;;;;;;5074540;28;20211;-74
2021/10/07 11:53:47;;;;;;;0.30;0.30;;;14.90;99.90;;;;;;5074378;28;20213;-74
2021/10/07 11:56:16;;;;;;;0.20;0.20;;;14.90;99.90;;;;;;5057347;28;20215;-74
2021/10/07 11:58:48;;;;;;;0.10;0.10;;;15.10;99.90;;;;;;5074103;28;20200;-75
2021/10/07 12:01:14;;;;;;;0.17;0.17;;;15.50;99.90;;;;;;5073002;28;20255;-75
2021/10/07 12:03:40;;;;;;;0.20;0.20;;;15.80;99.90;;;;;;5074026;28;20346;-75
2021/10/07 12:06:05;;;;;;;0.35;0.35;;;16.20;99.90;;;;;;5073210;28;20201;-74
2021/10/07 12:08:37;;;;;;;0.13;0.13;;;16.50;99.90;;;;;;5073962;28;20204;-74
2021/10/07 12:11:24;;;;;;;0.10;0.10;;;16.60;99.90;;;;;;5054899;28;20224;-74
2021/10/07 12:13:52;;;;;;;0.10;0.10;;;16.50;99.90;;;;;;5055957;28;20302;-74
2021/10/07 12:16:26;;;;;;;0.30;0.30;;;16.50;99.90;;;;;;5072686;28;20196;-75
2021/10/07 12:19:07;;;;;;;0.17;0.17;;;16.20;99.90;;;;;;5072504;28;20200;-74
2021/10/07 12:21:41;;;;;;;0.25;0.25;;;16.10;99.90;;;;;;5052509;28;20212;-74
2021/10/07 12:24:14;;;;;;;0.60;0.60;;;16.30;99.90;;;;;;5067089;28;20189;-74
2021/10/07 12:26:47;;;;;;;0.20;0.20;;;16.50;99.90;;;;;;5072292;28;20228;-74
2021/10/07 12:29:14;;;;;;;0.20;0.20;;;16.70;99.90;;;;;;5073804;28;20232;-74
2021/10/07 12:32:02;;;;;;;0.38;0.30;;;16.80;99.90;;;;;;5073707;28;20208;-74
2021/10/07 12:34:40;;;;;;;0.20;0.20;;;16.80;99.90;;;;;;5055606;28;20235;-74
2021/10/07 12:37:08;;;;;;;0.10;0.10;;;16.60;99.90;;;;;;5073619;28;20209;-74
2021/10/07 12:39:46;;;;;;;0.10;0.10;;;16.40;99.90;;;;;;5073597;28;20251;-75
2021/10/07 12:42:13;;;;;;;0.30;0.30;;;16.30;99.90;;;;;;5054318;28;20197;-75
2021/10/07 12:44:57;;;;;;;0.20;0.20;;;16.30;99.90;;;;;;5055193;28;20216;-75
2021/10/07 12:47:29;;;;;;;0.10;0.10;;;16.20;99.90;;;;;;5073111;28;20204;-76
2021/10/07 12:50:00;;;;;;;0.20;0.20;;;16.20;99.90;;;;;;5054339;28;20201;-75
2021/10/07 12:52:37;;;;;;;0.40;0.30;;;16.20;99.90;;;;;;5073078;28;20656;-75
2021/10/07 12:55:12;;;;;;;0.20;0.20;;;16.10;99.90;;;;;;5073185;28;20258;-75
2021/10/07 12:57:45;;;;;;;0.10;0.10;;;16.00;99.90;;;;;;5073021;28;20319;-75
2021/10/07 13:00:35;;;;;;;0.20;0.20;;;15.90;99.90;;;;;;5054849;28;20694;-75
2021/10/07 13:03:03;;;;;;;0.28;0.28;;;16.00;99.90;;;;;;5052586;28;20225;-75
2021/10/07 13:05:30;;;;;;;0.10;0.10;;;16.00;99.90;;;;;;5053115;28;20213;-75